Time;durP1;ratioP1;P1;durP2;ratioP2;P2;SDS_P1;SDS_P2;PMS_P1;PMS_P2;Temp;Humidity;BMP_temperature;BMP_pressure;BME280_temperature;BME280_humidity;BME280_pressure;Samples;Min_cycle;Max_cycle;Signal;HPM_P1;HPM_P2
2021/03/26 00:00:24;;;;;;;177.90;60.60;;;2.00;99.90;;;;;;5000567;28;20229;-96
2021/03/26 00:02:57;;;;;;;182.13;62.50;;;2.00;99.90;;;;;;5002787;28;20193;-96
2021/03/26 00:05:26;;;;;;;156.53;58.63;;;4.20;99.90;;;;;;5003549;28;20185;-96
2021/03/26 00:07:56;;;;;;;164.93;58.33;;;1.60;99.90;;;;;;4988168;28;20184;-96
2021/03/26 00:10:29;;;;;;;164.27;61.20;;;1.20;99.90;;;;;;5017727;28;20162;-96
2021/03/26 00:12:55;;;;;;;211.63;82.03;;;1.10;99.90;;;;;;5001486;28;20185;-96
2021/03/26 00:15:30;;;;;;;155.13;62.17;;;2.60;99.90;;;;;;5018433;28;20221;-95
2021/03/26 00:18:04;;;;;;;183.40;69.27;;;3.30;99.90;;;;;;5002122;28;20198;-95
2021/03/26 00:20:37;;;;;;;177.83;66.77;;;2.00;99.90;;;;;;5018370;28;20170;-95
2021/03/26 00:23:18;;;;;;;195.37;66.67;;;2.00;99.90;;;;;;5123403;23;20212;-95
2021/03/26 00:28:41;;;;;;;216.60;76.50;;;3.90;99.90;;;;;;5005676;28;20178;-95
2021/03/26 00:31:12;;;;;;;230.80;82.13;;;1.90;99.90;;;;;;5051706;23;20233;-95
2021/03/26 00:33:38;;;;;;;204.43;71.80;;;2.20;99.90;;;;;;5018130;28;20197;-96
2021/03/26 00:36:05;;;;;;;200.07;75.20;;;2.90;99.90;;;;;;5043730;23;20410;-93
2021/03/26 00:38:35;;;;;;;195.97;76.53;;;2.10;99.90;;;;;;5148941;23;20260;-95
2021/03/26 00:41:02;;;;;;;209.27;76.87;;;2.10;99.90;;;;;;5033346;28;20247;-96
2021/03/26 00:43:28;;;;;;;228.10;79.13;;;3.60;99.90;;;;;;5014735;28;20307;-95
2021/03/26 00:45:54;;;;;;;210.83;76.20;;;3.10;99.90;;;;;;5013621;28;20231;-96
2021/03/26 00:48:23;;;;;;;191.23;71.50;;;2.20;99.90;;;;;;5013701;28;20201;-95
2021/03/26 00:50:57;;;;;;;194.47;66.93;;;2.40;99.90;;;;;;5013691;28;20283;-96
2021/03/26 00:53:30;;;;;;;185.80;67.57;;;2.20;99.90;;;;;;5014198;28;20181;-96
2021/03/26 00:55:59;;;;;;;192.50;70.67;;;2.20;99.90;;;;;;5014382;28;20192;-96
2021/03/26 00:58:27;;;;;;;242.07;85.30;;;5.00;99.90;;;;;;5014342;28;20518;-96
2021/03/26 01:00:54;;;;;;;282.90;101.40;;;4.00;99.90;;;;;;5014049;28;20185;-94
2021/03/26 01:03:25;;;;;;;283.00;99.07;;;2.30;99.90;;;;;;5013895;28;20272;-96
2021/03/26 01:05:57;;;;;;;276.17;97.13;;;4.20;99.90;;;;;;5013777;28;20177;-96
2021/03/26 01:08:23;;;;;;;272.73;95.40;;;2.50;99.90;;;;;;5013465;28;20181;-95
2021/03/26 01:10:59;;;;;;;260.20;93.33;;;3.90;99.90;;;;;;5012965;28;20255;-95
2021/03/26 01:13:31;;;;;;;259.03;90.47;;;2.70;99.90;;;;;;5013389;28;20181;-95
2021/03/26 01:15:57;;;;;;;252.97;86.67;;;2.70;99.90;;;;;;5012948;28;20177;-95
2021/03/26 01:18:34;;;;;;;241.07;86.23;;;3.30;99.90;;;;;;5016497;28;20393;-95
2021/03/26 01:21:03;;;;;;;258.60;90.57;;;2.80;99.90;;;;;;5021779;28;20179;-96
2021/03/26 01:23:29;;;;;;;235.80;86.80;;;2.70;99.90;;;;;;5020642;28;20189;-96
2021/03/26 01:25:59;;;;;;;214.00;80.97;;;2.60;99.90;;;;;;5025549;28;20294;-96
2021/03/26 01:28:27;;;;;;;245.63;86.40;;;4.20;99.90;;;;;;5020217;28;20173;-96
2021/03/26 01:30:57;;;;;;;265.83;93.07;;;3.30;99.90;;;;;;5023356;28;20289;-96
2021/03/26 01:33:27;;;;;;;248.67;88.10;;;2.50;99.90;;;;;;5022323;28;20211;-96
2021/03/26 01:35:58;;;;;;;229.43;85.70;;;4.20;99.90;;;;;;5020070;28;20182;-96
2021/03/26 01:38:47;;;;;;;241.70;86.40;;;3.50;99.90;;;;;;5021317;28;20204;-96
2021/03/26 01:41:47;;;;;;;228.73;83.37;;;2.80;99.90;;;;;;5022058;28;20232;-96
2021/03/26 01:44:34;;;;;;;197.90;74.70;;;2.70;99.90;;;;;;5019181;28;20208;-96
2021/03/26 01:47:07;;;;;;;237.23;82.37;;;4.20;99.90;;;;;;5020099;28;20188;-96
2021/03/26 01:49:33;;;;;;;217.87;77.87;;;2.80;99.90;;;;;;5019117;28;20255;-96
2021/03/26 01:52:06;;;;;;;180.30;67.33;;;1.90;99.90;;;;;;5016572;28;20206;-96
2021/03/26 01:54:58;;;;;;;199.83;73.90;;;5.20;99.90;;;;;;5023959;28;20186;-96
2021/03/26 01:57:46;;;;;;;200.93;75.57;;;4.20;99.90;;;;;;5030040;28;20182;-96
2021/03/26 02:00:29;;;;;;;200.80;74.07;;;2.30;99.90;;;;;;5005490;28;20248;-96
2021/03/26 02:03:02;;;;;;;204.53;75.00;;;2.90;99.90;;;;;;5020329;28;20189;-96
2021/03/26 02:05:39;;;;;;;186.97;71.53;;;2.80;99.90;;;;;;5023876;28;20197;-96
2021/03/26 02:08:16;;;;;;;194.57;72.80;;;1.90;99.90;;;;;;5024183;28;20173;-96
2021/03/26 02:10:50;;;;;;;175.33;69.27;;;2.50;99.90;;;;;;5023407;28;20205;-96
2021/03/26 02:13:33;;;;;;;189.43;73.80;;;3.20;99.90;;;;;;5020221;28;20200;-96
2021/03/26 02:16:04;;;;;;;182.77;69.23;;;3.90;99.90;;;;;;5020367;28;20205;-96
2021/03/26 02:18:43;;;;;;;186.80;71.70;;;3.20;99.90;;;;;;5017805;28;20189;-96
2021/03/26 02:21:49;;;;;;;184.03;70.07;;;2.90;99.90;;;;;;5017742;28;20185;-96
2021/03/26 02:24:18;;;;;;;193.37;67.47;;;4.30;99.90;;;;;;4989417;28;20193;-96
2021/03/26 02:26:54;;;;;;;184.83;69.40;;;3.40;99.90;;;;;;5004805;28;20187;-96
2021/03/26 02:29:31;;;;;;;176.03;65.57;;;3.20;99.90;;;;;;5028819;28;20184;-96
2021/03/26 02:32:40;;;;;;;164.50;65.37;;;3.00;99.90;;;;;;5024370;28;20220;-96
2021/03/26 02:35:32;;;;;;;165.40;62.13;;;3.10;99.90;;;;;;5024258;28;20241;-96
2021/03/26 02:38:04;;;;;;;147.17;61.63;;;0.70;99.90;;;;;;5020335;28;20212;-96
2021/03/26 02:40:38;;;;;;;170.93;66.13;;;3.40;99.90;;;;;;5016395;28;20646;-96
2021/03/26 02:43:20;;;;;;;169.17;66.30;;;4.10;99.90;;;;;;5017159;28;20198;-96
2021/03/26 02:45:54;;;;;;;194.63;75.07;;;2.60;99.90;;;;;;5015668;28;20265;-96
2021/03/26 02:48:31;;;;;;;198.17;79.80;;;1.50;99.90;;;;;;5015008;28;20531;-96
2021/03/26 02:51:10;;;;;;;210.17;80.77;;;3.20;99.90;;;;;;5015170;28;20224;-96
2021/03/26 02:53:58;;;;;;;208.63;80.30;;;3.40;99.90;;;;;;5014962;28;20268;-96
2021/03/26 02:56:50;;;;;;;214.20;83.33;;;2.80;99.90;;;;;;5014778;28;20177;-96
2021/03/26 02:59:28;;;;;;;189.90;74.70;;;3.30;99.90;;;;;;5014541;28;20186;-95
2021/03/26 03:01:58;;;;;;;183.00;76.03;;;2.90;99.90;;;;;;5015861;28;20178;-96
2021/03/26 03:04:40;;;;;;;184.83;73.90;;;4.70;99.90;;;;;;5014641;28;20233;-96
2021/03/26 03:07:29;;;;;;;183.93;76.47;;;4.00;99.90;;;;;;5015944;28;20258;-96
2021/03/26 03:10:05;;;;;;;196.50;74.90;;;4.00;99.90;;;;;;5014526;28;20177;-96
2021/03/26 03:12:36;;;;;;;176.57;69.73;;;3.10;99.90;;;;;;5014454;28;20205;-96
2021/03/26 03:15:17;;;;;;;184.43;73.33;;;3.10;99.90;;;;;;5014422;28;20189;-96
2021/03/26 03:17:55;;;;;;;161.70;66.50;;;2.90;99.90;;;;;;5014875;28;20639;-96
2021/03/26 03:20:29;;;;;;;182.00;70.83;;;2.90;99.90;;;;;;5014118;28;20365;-96
2021/03/26 03:23:03;;;;;;;181.57;72.07;;;2.80;99.90;;;;;;5014278;28;20180;-96
2021/03/26 03:25:33;;;;;;;186.50;73.77;;;2.80;99.90;;;;;;5014881;28;20201;-95
2021/03/26 03:28:20;;;;;;;168.87;70.23;;;1.70;99.90;;;;;;5014496;28;20196;-95
2021/03/26 03:30:59;;;;;;;180.50;72.43;;;2.90;99.90;;;;;;5014324;28;20205;-95
2021/03/26 03:33:58;;;;;;;176.00;68.43;;;3.20;99.90;;;;;;5013756;28;20271;-94
2021/03/26 03:44:54;;;;;;;160.50;62.30;;;3.10;99.90;;;;;;4768765;30;20219;-96
2021/03/26 03:47:36;;;;;;;166.07;63.83;;;2.60;99.90;;;;;;4866645;29;20186;-95
2021/03/26 03:50:54;;;;;;;;;;;;;;;;;;;;;
2021/03/26 03:53:41;;;;;;;;;;;;;;;;;;;;;
2021/03/26 03:56:39;;;;;;;;;;;;;;;;;;;;;
2021/03/26 03:59:58;;;;;;;;;;;;;;;;;;;;;
2021/03/26 04:02:31;;;;;;;177.63;75.57;;;3.10;99.90;;;;;;4975434;28;20535;-94
2021/03/26 04:05:06;;;;;;;165.07;66.80;;;1.90;99.90;;;;;;4974322;28;20238;-94
2021/03/26 04:08:01;;;;;;;150.27;61.63;;;3.10;99.90;;;;;;4974672;28;20175;-94
2021/03/26 04:10:30;;;;;;;150.37;60.57;;;3.20;99.90;;;;;;4974157;28;20265;-95
2021/03/26 04:13:10;;;;;;;142.37;57.47;;;3.20;99.90;;;;;;4974736;28;20675;-95
2021/03/26 04:15:59;;;;;;;141.73;57.47;;;3.10;99.90;;;;;;4974582;28;20187;-94
2021/03/26 04:18:42;;;;;;;149.23;59.83;;;3.10;99.90;;;;;;4976231;28;20174;-95
2021/03/26 04:21:26;;;;;;;186.87;73.40;;;3.20;99.90;;;;;;4974039;28;20176;-95
2021/03/26 04:24:02;;;;;;;178.77;74.17;;;3.40;99.90;;;;;;4973826;28;20195;-93
2021/03/26 04:26:41;;;;;;;190.07;70.93;;;3.50;99.90;;;;;;4973828;28;20179;-91
2021/03/26 04:32:52;;;;;;;152.07;64.07;;;3.30;99.90;;;;;;4942959;28;20194;-94
2021/03/26 04:35:31;;;;;;;158.20;61.80;;;3.40;99.90;;;;;;4935817;29;20202;-94
2021/03/26 04:38:20;;;;;;;147.23;62.00;;;2.70;99.90;;;;;;4981641;28;20189;-94
2021/03/26 04:40:59;;;;;;;154.50;60.50;;;2.40;99.90;;;;;;4989953;28;20213;-93
2021/03/26 04:43:44;;;;;;;152.17;59.47;;;2.20;99.90;;;;;;5011387;28;20218;-91
2021/03/26 04:46:32;;;;;;;185.80;76.87;;;3.40;99.90;;;;;;5008077;28;20236;-94
2021/03/26 04:49:06;;;;;;;150.67;59.90;;;3.50;99.90;;;;;;5007080;28;20183;-95
2021/03/26 04:51:45;;;;;;;162.23;61.50;;;3.50;99.90;;;;;;5020524;28;20220;-94
2021/03/26 04:54:34;;;;;;;165.83;69.43;;;3.40;99.90;;;;;;5008968;28;20235;-93
2021/03/26 04:57:10;;;;;;;163.00;68.63;;;3.50;99.90;;;;;;5027267;28;20193;-93
2021/03/26 04:59:53;;;;;;;180.77;74.37;;;3.40;99.90;;;;;;5021159;28;20188;-92
2021/03/26 05:02:21;;;;;;;163.70;63.80;;;3.30;99.90;;;;;;5014178;28;20204;-93
2021/03/26 05:04:55;;;;;;;169.90;66.10;;;4.00;99.90;;;;;;5013522;28;20189;-93
2021/03/26 05:07:29;;;;;;;185.70;72.23;;;3.30;99.90;;;;;;5011351;28;20200;-95
2021/03/26 05:10:01;;;;;;;180.33;68.27;;;2.30;99.90;;;;;;5010714;28;20281;-93
2021/03/26 05:12:37;;;;;;;173.03;67.83;;;5.30;99.90;;;;;;5006552;28;20272;-91
2021/03/26 05:15:09;;;;;;;180.13;68.33;;;3.40;99.90;;;;;;5005665;28;20198;-92
2021/03/26 05:17:48;;;;;;;151.20;59.80;;;3.70;99.90;;;;;;5031148;28;20192;-93
2021/03/26 05:20:30;;;;;;;147.37;57.97;;;4.60;99.90;;;;;;5027051;28;20192;-92
2021/03/26 05:23:08;;;;;;;142.70;58.10;;;3.70;99.90;;;;;;5011151;28;20247;-94
2021/03/26 05:25:39;;;;;;;144.47;58.43;;;3.60;99.90;;;;;;5004024;28;20336;-91
2021/03/26 05:28:12;;;;;;;141.57;56.03;;;3.90;99.90;;;;;;5028677;28;20186;-91
2021/03/26 05:30:41;;;;;;;147.60;59.17;;;3.60;99.90;;;;;;5012138;28;20250;-91
2021/03/26 05:33:10;;;;;;;144.17;58.43;;;3.70;99.90;;;;;;5026107;28;20190;-90
2021/03/26 05:35:55;;;;;;;147.00;56.07;;;3.60;99.90;;;;;;5028775;28;20274;-95
2021/03/26 05:38:42;;;;;;;134.63;53.97;;;3.80;99.90;;;;;;5024810;28;20759;-93
2021/03/26 05:41:38;;;;;;;140.23;56.50;;;5.40;99.90;;;;;;5029967;28;20630;-93
2021/03/26 05:44:52;;;;;;;145.83;56.03;;;3.90;99.90;;;;;;5025386;28;20192;-92
2021/03/26 05:47:21;;;;;;;139.57;54.77;;;3.80;99.90;;;;;;5005573;28;20250;-93
2021/03/26 05:50:10;;;;;;;149.40;58.83;;;3.80;99.90;;;;;;5013695;28;20190;-92
2021/03/26 05:53:03;;;;;;;136.77;53.07;;;3.90;99.90;;;;;;5015165;28;20229;-92
2021/03/26 05:56:20;;;;;;;146.93;56.67;;;4.60;99.90;;;;;;5028102;28;20197;-92
2021/03/26 05:59:07;;;;;;;146.33;57.07;;;4.30;99.90;;;;;;4950767;28;20189;-95
2021/03/26 06:02:16;;;;;;;136.33;55.10;;;4.20;99.90;;;;;;4939350;29;20226;-92
2021/03/26 06:05:23;;;;;;;144.73;53.87;;;4.60;99.90;;;;;;4951903;28;20187;-93
2021/03/26 06:08:35;;;;;;;130.63;51.53;;;3.20;99.90;;;;;;4937274;29;20270;-93
2021/03/26 06:11:08;;;;;;;133.87;53.40;;;4.50;99.90;;;;;;4863338;29;20299;-92
2021/03/26 06:14:15;;;;;;;133.60;53.93;;;4.10;99.90;;;;;;4875765;29;20720;-96
2021/03/26 06:20:10;;;;;;;122.33;53.23;;;5.00;99.90;;;;;;4938378;29;20187;-91
2021/03/26 06:23:09;;;;;;;127.20;49.10;;;5.20;99.90;;;;;;4994241;28;20189;-95
2021/03/26 06:26:01;;;;;;;114.10;47.63;;;5.30;99.90;;;;;;5033133;28;20177;-94
2021/03/26 06:29:04;;;;;;;118.73;46.57;;;5.50;99.90;;;;;;5033301;28;20182;-94
2021/03/26 06:32:17;;;;;;;107.73;44.27;;;5.40;99.90;;;;;;5020613;28;20209;-93
2021/03/26 06:35:31;;;;;;;120.43;47.20;;;6.00;99.90;;;;;;5024112;28;20207;-95
2021/03/26 06:38:41;;;;;;;113.47;47.17;;;5.70;99.90;;;;;;5052204;28;20204;-93
2021/03/26 06:41:40;;;;;;;116.13;47.37;;;5.80;99.90;;;;;;5166378;22;20233;31
2021/03/26 06:44:09;;;;;;;110.20;47.07;;;5.90;99.90;;;;;;4998704;28;20254;-94
2021/03/26 06:46:58;;;;;;;113.77;47.30;;;6.10;99.90;;;;;;5069670;22;20252;-94
2021/03/26 06:49:47;;;;;;;121.83;48.40;;;6.10;99.90;;;;;;5029561;28;20195;-95
2021/03/26 06:52:37;;;;;;;121.80;48.67;;;6.20;99.90;;;;;;5014931;28;20339;-94
2021/03/26 06:55:40;;;;;;;114.97;47.67;;;6.30;99.90;;;;;;5012484;28;20204;-94
2021/03/26 06:58:37;;;;;;;114.37;47.17;;;6.30;99.90;;;;;;5017492;28;20622;-96
2021/03/26 07:01:27;;;;;;;112.00;45.97;;;6.60;99.90;;;;;;5021925;28;20185;-95
2021/03/26 07:04:37;;;;;;;111.13;46.43;;;6.50;99.90;;;;;;5008868;28;20601;-96
2021/03/26 07:07:27;;;;;;;112.53;46.67;;;6.80;99.90;;;;;;5019589;28;20188;-96
2021/03/26 07:10:25;;;;;;;115.23;49.57;;;5.90;99.90;;;;;;5020200;28;20200;-96
2021/03/26 07:13:29;;;;;;;117.60;49.23;;;6.80;99.90;;;;;;4997531;28;20292;-95
2021/03/26 07:16:17;;;;;;;113.07;47.27;;;6.80;99.90;;;;;;4996088;28;20227;-95
2021/03/26 07:19:02;;;;;;;116.47;49.33;;;6.90;99.90;;;;;;4996564;28;20200;-95
2021/03/26 07:22:05;;;;;;;114.07;48.17;;;7.10;99.90;;;;;;4995032;28;20186;-94
2021/03/26 07:24:47;;;;;;;121.47;50.23;;;7.00;99.90;;;;;;4995580;28;20203;-95
2021/03/26 07:27:22;;;;;;;120.20;48.90;;;7.10;99.90;;;;;;4994477;28;20697;-94
2021/03/26 07:30:04;;;;;;;119.23;49.83;;;7.30;99.90;;;;;;5001831;28;20200;-93
2021/03/26 07:32:32;;;;;;;113.53;48.07;;;7.40;99.90;;;;;;5016210;28;20220;-91
2021/03/26 07:35:31;;;;;;;109.13;46.77;;;7.30;99.90;;;;;;5009960;28;20212;-94
2021/03/26 07:38:28;;;;;;;90.43;43.27;;;7.40;99.90;;;;;;5012033;28;20180;-91
2021/03/26 07:41:17;;;;;;;102.20;45.23;;;7.40;99.90;;;;;;5012510;28;20192;-93
2021/03/26 07:44:01;;;;;;;107.60;44.23;;;7.50;99.90;;;;;;5004461;28;20182;-93
2021/03/26 07:46:49;;;;;;;101.70;44.13;;;7.60;99.90;;;;;;4994128;28;20233;-94
2021/03/26 07:49:42;;;;;;;114.70;47.33;;;7.90;99.90;;;;;;4993909;28;20217;-92
2021/03/26 07:52:42;;;;;;;98.33;43.30;;;7.90;99.90;;;;;;4993339;28;20216;-94
2021/03/26 07:55:20;;;;;;;119.13;47.20;;;8.00;99.90;;;;;;5007104;28;20196;-93
2021/03/26 07:58:08;;;;;;;112.47;46.87;;;7.90;99.90;;;;;;5013074;28;20334;-94
2021/03/26 08:00:43;;;;;;;113.97;45.07;;;7.90;99.90;;;;;;5012141;28;20603;-95
2021/03/26 08:03:34;;;;;;;105.80;46.97;;;8.10;99.90;;;;;;5013572;28;20187;-95
2021/03/26 08:06:24;;;;;;;114.07;49.77;;;8.00;99.90;;;;;;5013765;28;20657;-93
2021/03/26 08:09:28;;;;;;;105.53;46.83;;;8.10;99.90;;;;;;5012347;28;20629;-93
2021/03/26 08:12:06;;;;;;;107.90;47.40;;;7.10;99.90;;;;;;5004951;28;20684;-94
2021/03/26 08:14:54;;;;;;;110.90;46.87;;;8.30;99.90;;;;;;5003373;28;20176;-94
2021/03/26 08:17:42;;;;;;;98.77;43.30;;;8.40;99.90;;;;;;4993023;28;20236;-94
2021/03/26 08:20:20;;;;;;;103.47;42.43;;;8.00;99.90;;;;;;5000283;28;20229;-94
2021/03/26 08:22:55;;;;;;;92.40;41.77;;;8.30;99.90;;;;;;5003475;28;20177;-95
2021/03/26 08:25:34;;;;;;;88.10;40.20;;;8.30;99.90;;;;;;5007371;28;20231;-95
2021/03/26 08:28:08;;;;;;;77.13;33.77;;;8.40;99.90;;;;;;5013943;28;20184;-94
2021/03/26 08:30:45;;;;;;;77.87;36.00;;;8.50;99.90;;;;;;5008489;28;20173;-93
2021/03/26 08:33:30;;;;;;;69.83;31.00;;;8.90;99.90;;;;;;5001478;28;20645;-93
2021/03/26 08:36:10;;;;;;;69.73;31.83;;;8.70;99.90;;;;;;5016722;28;20672;-95
2021/03/26 08:39:19;;;;;;;74.63;31.77;;;8.80;99.90;;;;;;5008924;28;20177;-94
2021/03/26 08:42:10;;;;;;;70.70;31.40;;;8.90;99.90;;;;;;5021037;28;20180;-95
2021/03/26 08:44:37;;;;;;;70.10;29.90;;;9.20;99.90;;;;;;5014472;28;20185;-94
2021/03/26 08:47:10;;;;;;;70.20;31.00;;;9.10;99.90;;;;;;5018198;28;20689;-94
2021/03/26 08:50:01;;;;;;;64.93;29.97;;;9.10;99.90;;;;;;5016951;28;20208;-94
2021/03/26 08:53:00;;;;;;;66.57;30.13;;;9.10;99.90;;;;;;5017357;28;20204;-92
2021/03/26 08:55:41;;;;;;;61.53;28.47;;;9.30;99.90;;;;;;5015567;28;20189;-92
2021/03/26 08:58:16;;;;;;;62.50;28.47;;;9.30;99.90;;;;;;5016965;28;20180;-95
2021/03/26 09:01:18;;;;;;;63.67;29.73;;;9.50;99.90;;;;;;5017903;28;20184;-94
2021/03/26 09:04:17;;;;;;;66.90;28.87;;;9.60;99.90;;;;;;5017694;28;20168;-96
2021/03/26 09:07:23;;;;;;;62.43;29.47;;;9.60;99.90;;;;;;5017774;28;20208;-93
2021/03/26 09:10:02;;;;;;;63.03;29.60;;;9.80;98.90;;;;;;4988179;28;20190;-95
2021/03/26 09:12:39;;;;;;;64.53;29.97;;;10.00;96.70;;;;;;5019551;28;20200;-94
2021/03/26 09:15:23;;;;;;;62.63;28.23;;;10.00;97.20;;;;;;5018448;28;20216;-95
2021/03/26 09:17:57;;;;;;;59.13;29.40;;;10.10;94.60;;;;;;5019019;28;20213;-93
2021/03/26 09:20:27;;;;;;;64.40;30.00;;;10.10;95.10;;;;;;5019081;28;20179;-92
2021/03/26 09:23:08;;;;;;;58.00;29.33;;;10.20;95.30;;;;;;5021453;28;20228;-95
2021/03/26 09:25:43;;;;;;;68.53;32.00;;;10.20;92.50;;;;;;5019540;28;20189;-95
2021/03/26 09:28:33;;;;;;;60.03;30.07;;;10.30;90.10;;;;;;5018763;28;20667;-95
2021/03/26 09:31:08;;;;;;;60.07;31.00;;;10.10;90.00;;;;;;5021774;28;20288;-96
2021/03/26 09:33:37;;;;;;;58.93;28.77;;;10.00;90.60;;;;;;5020955;28;20200;-95
2021/03/26 09:36:08;;;;;;;62.53;29.47;;;10.00;88.90;;;;;;5018885;28;20556;-95
2021/03/26 09:38:45;;;;;;;60.87;28.87;;;9.90;90.10;;;;;;5017471;28;20182;-94
2021/03/26 09:41:22;;;;;;;67.93;31.50;;;10.30;91.00;;;;;;5015194;28;20189;-93
2021/03/26 09:44:05;;;;;;;61.63;27.50;;;10.20;90.40;;;;;;5016004;28;20177;-95
2021/03/26 09:46:49;;;;;;;64.47;29.60;;;10.30;89.70;;;;;;5015529;28;20239;-95
2021/03/26 09:49:27;;;;;;;61.67;29.83;;;10.50;87.30;;;;;;5016108;28;20185;-95
2021/03/26 09:52:16;;;;;;;60.57;27.13;;;10.50;86.70;;;;;;5015619;28;20212;-94
2021/03/26 09:54:47;;;;;;;62.07;28.50;;;10.70;85.30;;;;;;5015014;28;20247;-93
2021/03/26 09:57:37;;;;;;;57.53;27.83;;;10.80;85.40;;;;;;5016144;28;20181;-96
2021/03/26 10:00:23;;;;;;;58.17;28.07;;;11.00;81.50;;;;;;5016982;28;20188;-94
2021/03/26 10:03:08;;;;;;;58.40;27.93;;;10.90;82.60;;;;;;5017628;28;20165;-94
2021/03/26 10:05:37;;;;;;;57.20;27.03;;;10.90;84.10;;;;;;5016275;28;20264;-93
2021/03/26 10:08:08;;;;;;;51.77;25.67;;;11.10;84.90;;;;;;5015291;28;20243;-94
2021/03/26 10:13:07;;;;;;;56.77;27.37;;;11.10;80.00;;;;;;5017559;28;20553;-93
2021/03/26 10:16:04;;;;;;;55.53;27.13;;;11.20;82.70;;;;;;5016951;28;20630;-94
2021/03/26 10:18:42;;;;;;;56.30;28.60;;;11.40;80.00;;;;;;5014173;28;20685;-93
2021/03/26 10:21:38;;;;;;;49.95;26.05;;;11.60;76.50;;;;;;5014885;28;20183;-94
2021/03/26 10:24:13;;;;;;;46.20;25.38;;;11.00;76.50;;;;;;5013912;28;20195;-94
2021/03/26 10:26:38;;;;;;;51.60;26.60;;;10.00;76.40;;;;;;5014946;28;20177;-94
2021/03/26 10:29:16;;;;;;;50.77;25.83;;;11.30;77.00;;;;;;5012536;28;20192;-92
2021/03/26 10:31:45;;;;;;;50.92;25.00;;;11.30;78.60;;;;;;5013745;28;20215;-92
2021/03/26 10:34:15;;;;;;;51.97;24.23;;;11.80;77.30;;;;;;5014213;28;20195;-94
2021/03/26 10:36:49;;;;;;;51.35;24.27;;;12.00;77.30;;;;;;5012677;28;20646;-93
2021/03/26 10:39:54;;;;;;;52.03;26.15;;;12.20;74.70;;;;;;5013907;28;20209;-91
2021/03/26 10:42:51;;;;;;;52.67;25.35;;;12.40;73.00;;;;;;5015340;28;20189;-93
2021/03/26 10:45:17;;;;;;;51.22;25.85;;;12.60;72.50;;;;;;5016065;28;20185;-92
2021/03/26 10:47:55;;;;;;;42.47;21.67;;;12.70;70.00;;;;;;5013986;28;20237;-90
2021/03/26 10:50:59;;;;;;;48.88;24.05;;;12.80;69.20;;;;;;5013590;28;20189;-92
2021/03/26 10:53:26;;;;;;;38.60;21.50;;;12.90;68.70;;;;;;5013962;28;20189;-92
2021/03/26 10:56:05;;;;;;;44.70;21.02;;;12.50;65.40;;;;;;5015095;28;20196;-90
2021/03/26 10:58:35;;;;;;;42.38;20.77;;;12.10;67.30;;;;;;5013870;28;20188;-92
2021/03/26 11:01:05;;;;;;;45.85;22.90;;;12.40;68.20;;;;;;5014767;28;20174;-90
2021/03/26 11:03:39;;;;;;;49.10;24.05;;;12.50;69.10;;;;;;5013170;28;20184;-89
2021/03/26 11:06:22;;;;;;;48.45;23.58;;;12.60;67.60;;;;;;5014485;28;20181;-91
2021/03/26 11:09:19;;;;;;;47.03;23.52;;;12.50;67.40;;;;;;5014617;28;20264;-93
2021/03/26 11:11:58;;;;;;;44.15;25.20;;;12.40;68.50;;;;;;5011904;28;20304;-90
2021/03/26 11:14:57;;;;;;;44.58;23.15;;;12.30;69.70;;;;;;5013560;28;20733;-91
2021/03/26 11:17:38;;;;;;;41.33;22.85;;;12.60;68.10;;;;;;5015329;28;20173;-95
2021/03/26 11:20:12;;;;;;;44.63;23.60;;;12.90;65.80;;;;;;5008166;28;20660;-93
2021/03/26 11:22:41;;;;;;;44.95;22.70;;;12.90;67.10;;;;;;5013253;28;20188;-94
2021/03/26 11:25:10;;;;;;;51.75;23.20;;;13.10;68.20;;;;;;5012258;28;20210;-92
2021/03/26 11:27:49;;;;;;;47.22;23.63;;;12.80;67.20;;;;;;5008639;28;20185;-92
2021/03/26 11:30:37;;;;;;;42.20;21.90;;;13.20;65.20;;;;;;5009612;28;20173;-93
2021/03/26 11:33:23;;;;;;;42.05;21.35;;;12.80;68.00;;;;;;5008393;28;20209;-90
2021/03/26 11:35:51;;;;;;;44.70;21.52;;;13.00;66.80;;;;;;5014206;28;20173;-93
2021/03/26 11:38:32;;;;;;;41.25;18.70;;;13.20;66.10;;;;;;4997888;28;20724;-95
2021/03/26 11:41:15;;;;;;;37.72;19.38;;;13.20;65.80;;;;;;5014184;28;20181;-93
2021/03/26 11:43:50;;;;;;;41.85;21.73;;;13.30;65.30;;;;;;5009987;28;20177;-94
2021/03/26 11:46:20;;;;;;;35.05;18.42;;;13.40;65.20;;;;;;5018350;28;20228;-94
2021/03/26 11:49:03;;;;;;;37.63;18.38;;;13.40;63.70;;;;;;5002696;28;20657;-95
2021/03/26 11:52:01;;;;;;;33.22;17.67;;;13.40;64.60;;;;;;5007389;28;20259;-95
2021/03/26 11:55:11;;;;;;;33.95;17.88;;;13.30;62.50;;;;;;5027041;28;20196;-95
2021/03/26 11:57:45;;;;;;;34.05;17.50;;;13.30;63.90;;;;;;4958153;28;20183;-93
2021/03/26 12:00:19;;;;;;;29.30;15.85;;;13.50;65.40;;;;;;4999390;28;20185;-92
2021/03/26 12:02:59;;;;;;;25.90;14.75;;;13.60;61.60;;;;;;5008674;28;20275;-93
2021/03/26 12:05:40;;;;;;;33.17;17.73;;;13.40;61.20;;;;;;5005557;28;20645;-94
2021/03/26 12:08:28;;;;;;;34.35;16.63;;;13.30;62.10;;;;;;5004248;28;20189;-94
2021/03/26 12:11:12;;;;;;;26.20;15.25;;;13.20;63.30;;;;;;5004456;28;20208;-93
2021/03/26 12:13:57;;;;;;;30.25;17.40;;;13.30;61.50;;;;;;5011158;28;20271;-95
2021/03/26 12:16:29;;;;;;;35.58;17.38;;;13.20;65.00;;;;;;5037062;28;20161;-93
2021/03/26 12:19:01;;;;;;;34.10;17.73;;;13.00;63.80;;;;;;5033246;28;20219;-92
2021/03/26 12:21:54;;;;;;;46.00;17.98;;;13.30;63.40;;;;;;5031120;28;20177;-91
2021/03/26 12:24:32;;;;;;;28.38;14.23;;;13.00;65.00;;;;;;5028041;28;20177;-92
2021/03/26 12:27:41;;;;;;;24.80;13.00;;;13.30;64.20;;;;;;5034484;28;20173;-92
2021/03/26 12:30:19;;;;;;;26.42;13.43;;;13.50;64.40;;;;;;5035509;28;20192;-91
2021/03/26 12:33:11;;;;;;;30.25;15.40;;;13.50;63.50;;;;;;5029924;28;20244;-92
2021/03/26 12:35:46;;;;;;;21.85;13.13;;;13.60;64.10;;;;;;5046178;28;20569;-92
2021/03/26 12:38:47;;;;;;;32.28;14.15;;;13.70;63.60;;;;;;5022858;28;20207;-91
2021/03/26 12:41:39;;;;;;;23.48;13.73;;;13.80;63.30;;;;;;4996973;28;20189;-92
2021/03/26 12:44:40;;;;;;;26.95;13.68;;;13.60;61.00;;;;;;5030783;28;20161;-94
2021/03/26 12:47:32;;;;;;;62.22;30.85;;;15.80;62.70;;;;;;5015786;28;20307;-89
2021/03/26 12:50:18;;;;;;;36.53;15.65;;;13.80;61.80;;;;;;5009160;28;20188;-92
2021/03/26 12:52:50;;;;;;;37.53;15.00;;;13.60;59.90;;;;;;5011773;28;20213;-91
2021/03/26 12:55:34;;;;;;;36.17;17.40;;;14.00;61.90;;;;;;5005348;28;20185;-91
2021/03/26 12:58:05;;;;;;;24.02;13.35;;;13.90;59.90;;;;;;5010606;28;20234;-92
2021/03/26 13:00:37;;;;;;;21.17;12.95;;;14.10;59.00;;;;;;5010912;28;20185;-92
2021/03/26 13:03:08;;;;;;;22.17;12.57;;;14.40;57.90;;;;;;5008203;28;20209;-92
2021/03/26 13:05:38;;;;;;;40.35;20.20;;;14.70;58.40;;;;;;5012954;28;20247;-94
2021/03/26 13:08:21;;;;;;;28.05;13.65;;;14.90;58.20;;;;;;4992911;28;20189;-95
2021/03/26 13:11:09;;;;;;;20.40;12.32;;;13.80;55.90;;;;;;5011806;28;20208;-91
2021/03/26 13:13:49;;;;;;;25.15;12.98;;;15.10;57.10;;;;;;5022093;28;20177;-94
2021/03/26 13:16:22;;;;;;;42.47;17.63;;;15.80;56.20;;;;;;5016764;28;20187;-91
2021/03/26 13:18:52;;;;;;;24.75;12.40;;;15.50;55.20;;;;;;5014562;28;20284;-91
2021/03/26 13:21:28;;;;;;;24.98;12.32;;;15.70;56.20;;;;;;5011232;28;20189;-92
2021/03/26 13:24:03;;;;;;;50.53;21.23;;;15.90;54.60;;;;;;5011767;28;20185;-91
2021/03/26 13:26:33;;;;;;;25.58;12.75;;;16.10;54.30;;;;;;5004535;28;20180;-93
2021/03/26 13:29:32;;;;;;;41.42;17.55;;;17.10;55.20;;;;;;5013499;28;20188;-90
2021/03/26 13:31:59;;;;;;;22.08;12.05;;;16.20;57.00;;;;;;4955327;28;20775;-90
2021/03/26 13:34:39;;;;;;;30.95;14.60;;;16.30;53.60;;;;;;4994506;28;20189;-88
2021/03/26 13:37:22;;;;;;;26.80;13.45;;;16.30;53.10;;;;;;5013098;28;20277;-89
2021/03/26 13:40:09;;;;;;;29.40;12.82;;;16.30;54.00;;;;;;5013350;28;20236;-89
2021/03/26 13:42:44;;;;;;;24.98;13.02;;;16.40;52.90;;;;;;5012392;28;20276;-90
2021/03/26 13:45:21;;;;;;;24.65;13.68;;;16.50;52.40;;;;;;5012524;28;20193;-90
2021/03/26 13:47:57;;;;;;;32.92;16.02;;;16.60;53.10;;;;;;5008349;28;20240;-90
2021/03/26 13:50:34;;;;;;;26.52;14.00;;;16.40;53.90;;;;;;5029754;28;20184;-91
2021/03/26 13:53:09;;;;;;;32.20;14.93;;;16.40;52.30;;;;;;5008195;28;20276;-92
2021/03/26 13:55:54;;;;;;;30.23;14.40;;;16.30;53.30;;;;;;5009098;28;20208;-95
2021/03/26 13:58:36;;;;;;;21.60;12.65;;;16.50;53.20;;;;;;5012661;28;20189;-92
2021/03/26 14:01:07;;;;;;;24.85;13.38;;;16.60;56.70;;;;;;5009330;28;20189;-90
2021/03/26 14:03:38;;;;;;;25.98;13.85;;;16.30;51.70;;;;;;5009374;28;20185;-92
2021/03/26 14:06:54;;;;;;;30.30;16.00;;;16.30;51.70;;;;;;5010300;28;20656;-93